KLAX/LAX METAR and TAF weather

Enter ICAO airport designator
Station Type Date Time Source
KLAX METAR 2021/01/20 22:53 UTC NOAA

KLAX 202253Z VRB03KT 10SM FEW050 FEW150 25/02 A2989 RMK AO2 SLP122 T02500022


Station Type Date Time Source
KLAX Decoded METAR 2021/01/20 22:53 UTC NOAA

LOS ANGELES INTERNTL AIRPORT, CA, United States (KLAX) 33-56N 118-23W 46M
Jan 20, 2021 - 05:53 PM EST / 2021.01.20 2253 UTC
Wind: Variable at 3 MPH (3 KT):0
Visibility: 10 mile(s):0
Sky conditions: mostly clear
Temperature: 77.0 F (25.0 C)
Dew Point: 36.0 F (2.2 C)
Relative Humidity: 22%
Pressure (altimeter): 29.89 in. Hg (1012 hPa)
ob: KLAX 202253Z VRB03KT 10SM FEW050 FEW150 25/02 A2989 RMK AO2 SLP122 T02500022
cycle: 23

Station Type Date Time Source
KLAX TAF 2021/01/20 21:58 UTC NOAA

TAF
AMD KLAX 202058Z 2021/2124 03006KT P6SM SCT250
FM202200 26006KT P6SM SKC
FM210500 VRB03KT P6SM SKC
FM212100 26011KT P6SM SKC

Example: see airport list